createdAt,value
2019-05-15T00:02:04.354Z,102688.25
2019-05-15T00:04:34.651Z,102689.20
2019-05-15T00:07:04.835Z,102687.70
2019-05-15T00:09:39.202Z,102687.43
2019-05-15T00:12:08.500Z,102690.22
2019-05-15T00:14:41.594Z,102683.86
2019-05-15T00:17:12.408Z,102679.23
2019-05-15T00:19:48.609Z,102675.75
2019-05-15T00:22:20.127Z,102681.56
2019-05-15T00:24:52.442Z,102674.73
2019-05-15T00:27:22.799Z,102679.05
2019-05-15T00:29:53.005Z,102668.33
2019-05-15T00:32:23.629Z,102665.48
2019-05-15T00:34:54.138Z,102672.12
2019-05-15T00:37:25.407Z,102674.61
2019-05-15T00:39:59.089Z,102669.75
2019-05-15T00:42:29.631Z,102668.52
2019-05-15T00:45:00.039Z,102672.04
2019-05-15T00:47:30.275Z,102665.62
2019-05-15T00:50:00.609Z,102659.57
2019-05-15T00:52:31.000Z,102663.61
2019-05-15T00:55:01.673Z,102664.52
2019-05-15T00:57:32.390Z,102659.21
2019-05-15T01:00:02.676Z,102666.50
2019-05-15T01:02:32.879Z,102667.59
2019-05-15T01:05:03.317Z,102663.06
2019-05-15T01:07:33.566Z,102658.30
2019-05-15T01:10:04.326Z,102660.17
2019-05-15T01:12:35.056Z,102664.21
2019-05-15T01:15:05.593Z,102656.33
2019-05-15T01:17:38.705Z,102654.26
2019-05-15T01:20:08.559Z,102654.95
2019-05-15T01:22:39.732Z,102650.45
2019-05-15T01:25:10.010Z,102651.56
2019-05-15T01:27:40.954Z,102649.30
2019-05-15T01:30:11.305Z,102644.68
2019-05-15T01:32:41.500Z,102638.76
2019-05-15T01:35:12.683Z,102646.38
2019-05-15T01:37:43.582Z,102643.98
2019-05-15T01:40:14.743Z,102647.98
2019-05-15T01:42:45.193Z,102643.31
2019-05-15T01:45:15.890Z,102639.79
2019-05-15T01:47:48.025Z,102643.44
2019-05-15T01:50:18.616Z,102646.31
2019-05-15T01:52:49.227Z,102641.25
2019-05-15T01:55:19.552Z,102640.42
2019-05-15T01:57:49.855Z,102635.16
2019-05-15T02:00:20.920Z,102635.94
2019-05-15T02:02:51.883Z,102632.99
2019-05-15T02:05:22.945Z,102631.94
2019-05-15T02:07:53.716Z,102634.52
2019-05-15T02:10:24.068Z,102628.83
2019-05-15T02:12:54.744Z,102633.08
2019-05-15T02:15:25.312Z,102631.13
2019-05-15T02:17:55.946Z,102632.45
2019-05-15T02:20:26.291Z,102628.11
2019-05-15T02:22:59.093Z,102625.53
2019-05-15T02:25:29.596Z,102625.04
2019-05-15T02:27:59.953Z,102621.67
2019-05-15T02:30:34.185Z,102627.35
2019-05-15T02:33:02.349Z,102618.97
2019-05-15T02:35:32.764Z,102624.41
2019-05-15T02:38:03.065Z,102618.57
2019-05-15T02:40:33.312Z,102613.80
2019-05-15T02:43:04.563Z,102614.00
2019-05-15T02:45:37.930Z,102614.69
2019-05-15T02:48:08.931Z,102620.67
2019-05-15T02:50:39.851Z,102615.03
2019-05-15T02:53:10.837Z,102612.87
2019-05-15T02:55:41.601Z,102619.01
2019-05-15T02:58:12.278Z,102607.00
2019-05-15T03:00:48.032Z,102614.92
2019-05-15T03:03:14.523Z,102610.30
2019-05-15T03:05:45.258Z,102606.73
2019-05-15T03:08:19.572Z,102602.75
2019-05-15T03:10:50.089Z,102598.78
2019-05-15T03:13:20.658Z,102602.41
2019-05-15T03:15:51.841Z,102606.47
2019-05-15T03:18:25.351Z,102598.59
2019-05-15T03:21:00.008Z,102608.74
2019-05-15T03:23:29.795Z,102611.77
2019-05-15T03:26:03.997Z,102602.95
2019-05-15T03:28:32.169Z,102602.48
2019-05-15T03:31:17.799Z,102602.45
2019-05-15T03:33:36.933Z,102605.56
2019-05-15T03:36:12.424Z,102594.53
2019-05-15T03:38:39.600Z,102600.18
2019-05-15T03:41:10.705Z,102595.91
2019-05-15T03:43:40.974Z,102602.08
2019-05-15T03:46:11.123Z,102598.70
2019-05-15T03:48:41.585Z,102600.98
2019-05-15T03:51:11.929Z,102605.10
2019-05-15T03:53:42.869Z,102600.67
2019-05-15T03:56:14.299Z,102598.97
2019-05-15T03:58:44.950Z,102597.30
2019-05-15T04:01:32.525Z,102594.61
2019-05-15T04:03:49.576Z,102591.09
2019-05-15T04:06:20.734Z,102589.16
2019-05-15T04:08:51.258Z,102590.75
2019-05-15T04:11:22.878Z,102588.40
2019-05-15T04:13:53.999Z,102587.29
2019-05-15T04:16:24.715Z,102585.02
2019-05-15T04:18:55.033Z,102586.72
2019-05-15T04:21:25.386Z,102592.59
2019-05-15T04:23:58.800Z,102586.39
2019-05-15T04:26:29.097Z,102589.50
2019-05-15T04:29:00.261Z,102588.70
2019-05-15T04:31:49.840Z,102583.36
2019-05-15T04:34:03.346Z,102583.23
2019-05-15T04:36:34.013Z,102582.63
2019-05-15T04:39:06.084Z,102588.13
2019-05-15T04:41:39.225Z,102592.32
2019-05-15T04:44:10.256Z,102591.75
2019-05-15T04:46:41.068Z,102589.29
2019-05-15T04:49:11.579Z,102590.03
2019-05-15T04:51:45.026Z,102592.46
2019-05-15T04:54:16.075Z,102588.22
2019-05-15T04:56:48.879Z,102577.78
2019-05-15T04:59:19.495Z,102580.44
2019-05-15T05:02:12.935Z,102579.69
2019-05-15T05:04:24.228Z,102576.79
2019-05-15T05:06:54.402Z,102576.81
2019-05-15T05:09:24.916Z,102567.96
2019-05-15T05:11:55.149Z,102582.84
2019-05-15T05:14:28.328Z,102584.79
2019-05-15T05:17:00.914Z,102576.48
2019-05-15T05:19:31.750Z,102584.34
2019-05-15T05:22:02.507Z,102586.02
2019-05-15T05:24:32.830Z,102575.27
2019-05-15T05:27:04.388Z,102581.36
2019-05-15T05:29:34.812Z,102584.24
2019-05-15T05:32:05.120Z,102586.81
2019-05-15T05:34:35.566Z,102590.59
2019-05-15T05:37:07.834Z,102588.83
2019-05-15T05:39:39.449Z,102584.85
2019-05-15T05:42:10.026Z,102585.28
2019-05-15T05:44:42.644Z,102583.13
2019-05-15T05:47:13.401Z,102579.66
2019-05-15T05:49:43.679Z,102581.31
2019-05-15T05:52:14.255Z,102580.76
2019-05-15T05:54:45.629Z,102577.09
2019-05-15T05:57:19.334Z,102584.47
2019-05-15T05:59:50.292Z,102591.23
2019-05-15T06:02:22.658Z,102584.72
2019-05-15T06:04:53.158Z,102584.27
2019-05-15T06:07:23.428Z,102586.81
2019-05-15T06:09:54.219Z,102586.94
2019-05-15T06:12:24.966Z,102590.88
2019-05-15T06:14:58.048Z,102588.84
2019-05-15T06:17:29.721Z,102589.64
2019-05-15T06:20:02.606Z,102595.47
2019-05-15T06:22:34.944Z,102595.67
2019-05-15T06:25:10.651Z,102591.06
2019-05-15T06:27:42.428Z,102595.96
2019-05-15T06:30:22.133Z,102600.09
2019-05-15T06:33:04.272Z,102599.70
2019-05-15T06:35:24.408Z,102603.25
2019-05-15T06:37:59.099Z,102602.80
2019-05-15T06:40:32.422Z,102599.97
2019-05-15T06:43:04.087Z,102599.58
2019-05-15T06:45:38.038Z,102595.45
2019-05-15T06:48:09.444Z,102598.78
2019-05-15T06:50:43.581Z,102599.47
2019-05-15T06:53:19.117Z,102596.04
2019-05-15T06:55:50.609Z,102596.11
2019-05-15T06:58:25.183Z,102602.24
2019-05-15T07:00:55.011Z,102589.95
2019-05-15T07:03:29.480Z,102592.19
2019-05-15T07:06:01.773Z,102587.84
2019-05-15T07:08:33.826Z,102591.77
2019-05-15T07:11:08.739Z,102585.82
2019-05-15T07:13:41.248Z,102584.25
2019-05-15T07:16:12.645Z,102582.28
2019-05-15T07:18:45.629Z,102584.45
2019-05-15T07:21:20.698Z,102582.35
2019-05-15T07:23:55.391Z,102586.41
2019-05-15T07:26:28.826Z,102584.52
2019-05-15T07:29:00.086Z,102581.44
2019-05-15T07:31:35.390Z,102577.20
2019-05-15T07:34:08.371Z,102574.62
2019-05-15T07:36:41.142Z,102576.53
2019-05-15T07:39:14.607Z,102573.62
2019-05-15T07:41:48.346Z,102572.97
2019-05-15T07:44:22.159Z,102565.48
2019-05-15T07:46:55.001Z,102577.55
2019-05-15T07:49:28.843Z,102573.47
2019-05-15T07:51:59.616Z,102565.94
2019-05-15T07:54:32.013Z,102571.46
2019-05-15T07:57:04.430Z,102574.97
2019-05-15T07:59:40.021Z,102573.46
2019-05-15T08:02:10.354Z,102565.87
2019-05-15T08:04:40.705Z,102565.48
2019-05-15T08:07:11.001Z,102570.16
2019-05-15T08:09:41.309Z,102560.30
2019-05-15T08:12:11.712Z,102566.45
2019-05-15T08:14:42.590Z,102566.14
2019-05-15T08:17:12.892Z,102566.65
2019-05-15T08:19:43.788Z,102565.64
2019-05-15T08:22:18.184Z,102565.64
2019-05-15T08:24:49.656Z,102563.44
2019-05-15T08:27:19.835Z,102554.59
2019-05-15T08:29:50.510Z,102550.83
2019-05-15T08:32:20.943Z,102550.83
2019-05-15T08:34:51.319Z,102550.27
2019-05-15T08:37:21.927Z,102546.48
2019-05-15T08:39:52.336Z,102544.08
2019-05-15T08:42:23.235Z,102547.95
2019-05-15T08:44:53.497Z,102541.62
2019-05-15T08:47:24.147Z,102521.45
2019-05-15T08:49:54.573Z,102521.45
2019-05-15T08:52:24.883Z,102537.37
2019-05-15T08:54:55.091Z,102534.78
2019-05-15T08:57:25.770Z,102527.01
2019-05-15T08:59:58.198Z,102527.01
2019-05-15T09:02:28.772Z,102519.52
2019-05-15T09:04:59.187Z,102519.52
2019-05-15T09:07:29.505Z,102522.15
2019-05-15T09:09:59.843Z,102522.15
2019-05-15T09:12:30.227Z,102521.82
2019-05-15T09:15:01.400Z,102516.83
2019-05-15T09:17:31.638Z,102511.59
2019-05-15T09:20:02.185Z,102511.98
2019-05-15T09:22:32.676Z,102511.98
2019-05-15T09:25:03.004Z,102512.03
2019-05-15T09:27:33.764Z,102512.03
2019-05-15T09:30:04.575Z,102513.88
2019-05-15T09:32:35.206Z,102516.53
2019-05-15T09:35:08.183Z,102510.92
2019-05-15T09:37:38.887Z,102509.46
2019-05-15T09:40:10.068Z,102503.08
2019-05-15T09:42:40.578Z,102502.32
2019-05-15T09:45:11.349Z,102499.52
2019-05-15T09:47:41.636Z,102498.78
2019-05-15T09:50:12.291Z,102499.70
2019-05-15T09:52:43.200Z,102494.34
2019-05-15T09:55:13.952Z,102500.22
2019-05-15T09:57:44.222Z,102492.94
2019-05-15T10:00:15.174Z,102501.03
2019-05-15T10:02:48.337Z,102495.53
2019-05-15T10:05:19.510Z,102489.19
2019-05-15T10:07:49.866Z,102484.52
2019-05-15T10:10:20.377Z,102479.98
2019-05-15T10:12:50.949Z,102486.55
2019-05-15T10:15:21.952Z,102472.62
2019-05-15T10:17:52.301Z,102479.97
2019-05-15T10:20:22.933Z,102469.04
2019-05-15T10:22:54.922Z,102474.90
2019-05-15T10:25:25.430Z,102464.41
2019-05-15T10:27:57.959Z,102472.84
2019-05-15T10:30:29.555Z,102470.78
2019-05-15T10:33:00.443Z,102472.94
2019-05-15T10:35:31.790Z,102462.53
2019-05-15T10:38:03.139Z,102464.17
2019-05-15T10:40:34.019Z,102455.52
2019-05-15T10:43:04.731Z,102461.22
2019-05-15T10:45:35.394Z,102449.89
2019-05-15T10:48:05.723Z,102454.96
2019-05-15T10:50:38.607Z,102457.25
2019-05-15T10:53:11.236Z,102452.58
2019-05-15T10:55:40.754Z,102447.63
2019-05-15T10:58:16.582Z,102443.75
2019-05-15T11:00:43.792Z,102445.87
2019-05-15T11:03:14.160Z,102443.71
2019-05-15T11:05:45.776Z,102435.86
2019-05-15T11:08:18.581Z,102431.16
2019-05-15T11:10:49.470Z,102422.80
2019-05-15T11:13:21.042Z,102434.34
2019-05-15T11:15:51.537Z,102437.17
2019-05-15T11:18:22.067Z,102422.63
2019-05-15T11:20:52.553Z,102416.35
2019-05-15T11:23:23.000Z,102415.26
2019-05-15T11:25:53.653Z,102419.56
2019-05-15T11:28:31.799Z,102415.86
2019-05-15T11:30:59.486Z,102410.88
2019-05-15T11:33:29.576Z,102413.77
2019-05-15T11:36:05.370Z,102411.24
2019-05-15T11:38:33.099Z,102406.99
2019-05-15T11:41:04.756Z,102404.13
2019-05-15T11:43:38.632Z,102412.05
2019-05-15T11:46:09.984Z,102410.48
2019-05-15T11:48:39.798Z,102404.05
2019-05-15T11:51:10.039Z,102401.66
2019-05-15T11:53:40.547Z,102406.08
2019-05-15T11:56:11.061Z,102402.56
2019-05-15T11:58:47.139Z,102406.48
2019-05-15T12:01:19.030Z,102398.73
2019-05-15T12:03:50.486Z,102402.56
2019-05-15T12:06:23.271Z,102402.01
2019-05-15T12:08:53.537Z,102396.81
2019-05-15T12:11:33.238Z,102401.28
2019-05-15T12:13:56.111Z,102402.92
2019-05-15T12:16:29.045Z,102396.28
2019-05-15T12:19:08.948Z,102394.48
2019-05-15T12:21:31.773Z,102402.38
2019-05-15T12:24:04.791Z,102399.50
2019-05-15T12:26:35.313Z,102395.59
2019-05-15T12:29:05.940Z,102388.41
2019-05-15T12:31:38.834Z,102387.20
2019-05-15T12:34:09.221Z,102391.89
2019-05-15T12:36:52.061Z,102387.78
2019-05-15T12:39:13.782Z,102389.02
2019-05-15T13:02:02.597Z,102366.64
2019-05-15T13:04:33.713Z,102373.94
2019-05-15T13:07:13.058Z,102371.20
2019-05-15T13:09:38.131Z,102362.33
2019-05-15T13:12:08.931Z,102364.72
2019-05-15T13:14:39.171Z,102359.16
2019-05-15T13:17:09.554Z,102361.72
2019-05-15T13:19:39.904Z,102367.36
2019-05-15T13:22:17.622Z,102360.69
2019-05-15T13:24:42.688Z,102357.14
2019-05-15T13:27:14.309Z,102360.61
2019-05-15T13:29:48.498Z,102356.68
2019-05-15T13:32:18.261Z,102354.42
2019-05-15T13:34:49.223Z,102357.67
2019-05-15T13:37:27.092Z,102355.06
2019-05-15T13:39:51.808Z,102342.23
2019-05-15T13:42:23.061Z,102339.02
2019-05-15T13:44:53.579Z,102340.14
2019-05-15T13:47:24.313Z,102338.33
2019-05-15T13:49:58.547Z,102339.40
2019-05-15T13:52:28.264Z,102346.75
2019-05-15T13:54:59.255Z,102343.23
2019-05-15T13:57:30.449Z,102344.05
2019-05-15T14:00:01.177Z,102341.91
2019-05-15T14:02:38.411Z,102342.52
2019-05-15T14:05:09.584Z,102344.96
2019-05-15T14:07:48.816Z,102344.30
2019-05-15T14:10:12.543Z,102338.85
2019-05-15T14:12:42.705Z,102344.20
2019-05-15T14:15:13.425Z,102334.59
2019-05-15T14:17:43.641Z,102335.26
2019-05-15T14:20:14.275Z,102339.05
2019-05-15T14:22:44.639Z,102333.05
2019-05-15T14:25:14.910Z,102332.00
2019-05-15T14:27:48.410Z,102327.57
2019-05-15T14:30:18.190Z,102327.59
2019-05-15T14:32:48.678Z,102337.23
2019-05-15T14:35:18.922Z,102328.48
2019-05-15T14:38:02.641Z,102322.66
2019-05-15T14:40:21.638Z,102319.21
2019-05-15T14:42:52.160Z,102333.48
2019-05-15T14:45:22.749Z,102326.98
2019-05-15T14:47:53.718Z,102324.39
2019-05-15T14:50:25.503Z,102327.39
2019-05-15T14:52:58.422Z,102315.79
2019-05-15T14:55:33.374Z,102326.88
2019-05-15T14:58:00.724Z,102332.43
2019-05-15T15:00:34.879Z,102315.11
2019-05-15T15:03:04.144Z,102318.34
2019-05-15T15:05:34.435Z,102317.75
2019-05-15T15:08:17.191Z,102323.27
2019-05-15T15:10:38.431Z,102310.81
2019-05-15T15:13:09.376Z,102309.38
2019-05-15T15:15:42.440Z,102306.27
2019-05-15T15:18:12.695Z,102302.31
2019-05-15T15:20:42.902Z,102302.20
2019-05-15T15:23:13.813Z,102297.34
2019-05-15T15:25:44.063Z,102292.05
2019-05-15T15:28:14.359Z,102297.98
2019-05-15T15:30:49.623Z,102296.88
2019-05-15T15:33:19.910Z,102304.66
2019-05-15T15:35:50.576Z,102303.33
2019-05-15T15:38:36.793Z,102301.41
2019-05-15T15:40:52.719Z,102298.19
2019-05-15T15:43:23.340Z,102298.86
2019-05-15T15:45:53.885Z,102292.69
2019-05-15T15:48:33.583Z,102293.22
2019-05-15T15:51:03.813Z,102294.52
2019-05-15T15:53:34.776Z,102294.66
2019-05-15T15:56:07.817Z,102297.86
2019-05-15T15:58:38.380Z,102297.09
2019-05-15T16:01:09.185Z,102292.50
2019-05-15T16:03:39.579Z,102287.16
2019-05-15T16:06:11.258Z,102279.70
2019-05-15T16:08:53.114Z,102272.21
2019-05-15T16:11:14.471Z,102278.34
2019-05-15T16:13:46.436Z,102275.66
2019-05-15T16:16:17.963Z,102270.41
2019-05-15T16:18:49.147Z,102263.95
2019-05-15T16:21:19.605Z,102275.72
2019-05-15T16:23:50.333Z,102268.70
2019-05-15T16:26:20.570Z,102264.73
2019-05-15T16:28:51.456Z,102263.19
2019-05-15T16:31:21.800Z,102260.23
2019-05-15T16:33:53.154Z,102265.97
2019-05-15T16:36:27.734Z,102268.98
2019-05-15T16:39:07.724Z,102259.34
2019-05-15T16:41:30.431Z,102262.14
2019-05-15T16:44:00.699Z,102260.81
2019-05-15T16:46:31.103Z,102265.57
2019-05-15T16:49:02.119Z,102262.66
2019-05-15T16:51:32.602Z,102253.86
2019-05-15T16:54:02.912Z,102254.22
2019-05-15T16:56:36.321Z,102260.74
2019-05-15T16:59:06.189Z,102253.33
2019-05-15T17:01:39.175Z,102256.08
2019-05-15T17:04:09.236Z,102252.59
2019-05-15T17:06:40.155Z,102258.84
2019-05-15T17:09:20.640Z,102256.67
2019-05-15T17:11:42.718Z,102259.91
2019-05-15T17:14:13.085Z,102268.70
2019-05-15T17:16:44.093Z,102257.12
2019-05-15T17:19:14.408Z,102262.62
2019-05-15T17:21:45.289Z,102268.16
2019-05-15T17:24:16.220Z,102257.98
2019-05-15T17:26:48.463Z,102269.29
2019-05-15T17:29:18.948Z,102261.21
2019-05-15T17:31:49.735Z,102260.56
2019-05-15T17:34:20.880Z,102261.83
2019-05-15T17:36:51.424Z,102258.59
2019-05-15T17:39:33.639Z,102260.86
2019-05-15T17:41:54.018Z,102265.28
2019-05-15T17:44:25.635Z,102263.75
2019-05-15T17:46:58.842Z,102262.55
2019-05-15T17:49:29.218Z,102252.27
2019-05-15T17:52:01.594Z,102255.25
2019-05-15T17:54:32.121Z,102244.70
2019-05-15T17:57:02.936Z,102250.61
2019-05-15T17:59:33.468Z,102247.65
2019-05-15T18:02:03.961Z,102250.59
2019-05-15T18:04:34.992Z,102254.31
2019-05-15T18:07:05.533Z,102247.31
2019-05-15T18:09:48.447Z,102246.14
2019-05-15T18:12:10.754Z,102246.08
2019-05-15T18:14:40.622Z,102248.06
2019-05-15T18:17:11.053Z,102256.30
2019-05-15T18:19:41.542Z,102252.55
2019-05-15T18:22:12.162Z,102255.67
2019-05-15T18:24:42.489Z,102261.06
2019-05-15T18:27:13.278Z,102266.83
2019-05-15T18:29:45.227Z,102262.22
2019-05-15T18:32:15.715Z,102270.56
2019-05-15T18:34:48.691Z,102272.39
2019-05-15T18:37:19.232Z,102273.27
2019-05-15T18:40:02.208Z,102267.03
2019-05-15T18:42:22.688Z,102261.84
2019-05-15T18:44:53.161Z,102270.61
2019-05-15T18:47:24.245Z,102272.51
2019-05-15T18:50:05.094Z,102268.23
2019-05-15T18:52:28.762Z,102272.39
2019-05-15T18:54:59.280Z,102275.13
2019-05-15T18:57:29.621Z,102271.67
2019-05-15T19:00:00.491Z,102266.97
2019-05-15T19:02:30.886Z,102276.47
2019-05-15T19:05:01.537Z,102270.33
2019-05-15T19:07:32.587Z,102269.12
2019-05-15T19:10:04.297Z,102269.12
2019-05-15T19:12:34.548Z,102270.97
2019-05-15T19:15:05.534Z,102270.97
2019-05-15T19:17:35.789Z,102274.91
2019-05-15T19:20:08.412Z,102274.31
2019-05-15T19:22:40.844Z,102271.33
2019-05-15T19:25:10.644Z,102271.33
2019-05-15T19:27:41.927Z,102277.35
2019-05-15T19:30:13.560Z,102277.23
2019-05-15T19:32:43.865Z,102272.19
2019-05-15T19:35:15.177Z,102272.19
2019-05-15T19:37:45.647Z,102285.69
2019-05-15T19:40:18.314Z,102282.83
2019-05-15T19:42:48.806Z,102285.70
2019-05-15T19:45:20.170Z,102281.27
2019-05-15T19:47:51.915Z,102276.53
2019-05-15T19:50:22.324Z,102273.66
2019-05-15T19:52:52.634Z,102273.81
2019-05-15T19:55:23.815Z,102279.11
2019-05-15T19:57:54.707Z,102283.42
2019-05-15T20:00:25.238Z,102278.24
2019-05-15T20:02:57.870Z,102279.68
2019-05-15T20:05:28.969Z,102275.11
2019-05-15T20:07:59.787Z,102279.52
2019-05-15T20:10:30.367Z,102271.45
2019-05-15T20:13:02.575Z,102279.22
2019-05-15T20:15:42.814Z,102276.93
2019-05-15T20:18:13.607Z,102271.58
2019-05-15T20:20:43.981Z,102275.38
2019-05-15T20:23:18.430Z,102267.05
2019-05-15T20:25:49.124Z,102269.02
2019-05-15T20:28:19.973Z,102272.23
2019-05-15T20:30:52.240Z,102268.94
2019-05-15T20:33:24.186Z,102267.98
2019-05-15T20:35:55.125Z,102268.30
2019-05-15T20:38:29.279Z,102262.08
2019-05-15T20:41:00.530Z,102258.23
2019-05-15T20:43:31.618Z,102259.95
2019-05-15T20:46:08.467Z,102262.63
2019-05-15T20:52:21.791Z,102259.17
2019-05-15T20:54:55.085Z,102257.45
2019-05-15T20:57:25.487Z,102257.45
2019-05-15T20:59:58.551Z,102248.64
2019-05-15T21:02:29.138Z,102254.52
2019-05-15T21:05:00.773Z,102250.67
2019-05-15T21:07:38.628Z,102243.33
2019-05-15T21:10:03.843Z,102240.27
2019-05-15T21:12:34.226Z,102245.17
2019-05-15T21:15:05.123Z,102242.80
2019-05-15T21:17:39.114Z,102249.19
2019-05-15T21:20:09.406Z,102250.27
2019-05-15T21:22:40.617Z,102248.71
2019-05-15T21:25:11.944Z,102250.39
2019-05-15T21:27:43.703Z,102241.58
2019-05-15T21:30:14.664Z,102243.39
2019-05-15T21:32:44.910Z,102240.41
2019-05-15T21:35:17.852Z,102239.77
2019-05-15T21:37:49.578Z,102236.00
2019-05-15T21:40:19.751Z,102237.23
2019-05-15T21:42:51.311Z,102241.55
2019-05-15T21:45:24.381Z,102238.78
2019-05-15T21:47:54.564Z,102237.18
2019-05-15T21:50:24.795Z,102235.97
2019-05-15T21:52:55.041Z,102236.06
2019-05-15T21:55:28.897Z,102240.37
2019-05-15T21:58:00.255Z,102234.20
2019-05-15T22:00:38.216Z,102230.98
2019-05-15T22:03:10.817Z,102230.72
2019-05-15T22:05:42.159Z,102231.27
2019-05-15T22:08:12.772Z,102225.92
2019-05-15T22:10:43.200Z,102221.31
2019-05-15T22:13:14.566Z,102221.31
2019-05-15T22:15:47.962Z,102225.36
2019-05-15T22:18:19.047Z,102218.80
2019-05-15T22:20:49.305Z,102222.08
2019-05-15T22:23:19.630Z,102219.45
2019-05-15T22:25:51.502Z,102217.44
2019-05-15T22:28:21.852Z,102214.53
2019-05-15T22:30:52.435Z,102210.70
2019-05-15T22:33:23.121Z,102199.69
2019-05-15T22:35:53.348Z,102201.81
2019-05-15T22:38:24.708Z,102199.22
2019-05-15T22:40:55.399Z,102200.64
2019-05-15T22:43:26.052Z,102195.75
2019-05-15T22:45:58.849Z,102197.64
2019-05-15T22:48:29.097Z,102199.69
2019-05-15T22:50:59.810Z,102189.28
2019-05-15T22:53:30.484Z,102186.22
2019-05-15T22:56:01.403Z,102187.72
2019-05-15T22:58:31.763Z,102184.66
2019-05-15T23:01:02.131Z,102183.84
2019-05-15T23:03:32.744Z,102182.27
2019-05-15T23:06:03.081Z,102180.83
2019-05-15T23:08:33.349Z,102171.27
2019-05-15T23:11:03.975Z,102170.14
2019-05-15T23:13:34.808Z,102165.19
2019-05-15T23:16:06.469Z,102157.98
2019-05-15T23:18:37.491Z,102153.62
2019-05-15T23:21:08.879Z,102152.03
2019-05-15T23:23:39.453Z,102148.02
2019-05-15T23:26:09.846Z,102155.81
2019-05-15T23:28:40.123Z,102149.25
2019-05-15T23:31:10.438Z,102146.14
2019-05-15T23:33:42.215Z,102144.20
2019-05-15T23:36:12.476Z,102139.14
2019-05-15T23:38:42.963Z,102141.53
2019-05-15T23:41:14.386Z,102136.39
2019-05-15T23:43:44.699Z,102136.89
2019-05-15T23:46:15.269Z,102142.79
2019-05-15T23:48:45.716Z,102146.53
2019-05-15T23:51:18.716Z,102142.05
2019-05-15T23:53:48.648Z,102145.22
2019-05-15T23:56:19.357Z,102136.91
2019-05-15T23:58:50.480Z,102138.52
